sensor_id;sensor_type;location;lat;lon;timestamp;P1;durP1;ratioP1;P2;durP2;ratioP2
45007;SDS011;30743;52.008;5.644;2022-09-25T00:01:07;4.45;;;2.30;;
45007;SDS011;30743;52.008;5.644;2022-09-25T00:03:33;5.80;;;2.58;;
45007;SDS011;30743;52.008;5.644;2022-09-25T00:06:00;4.53;;;2.55;;
45007;SDS011;30743;52.008;5.644;2022-09-25T00:08:34;8.30;;;3.17;;
45007;SDS011;30743;52.008;5.644;2022-09-25T00:11:04;6.88;;;2.88;;
45007;SDS011;30743;52.008;5.644;2022-09-25T00:13:37;5.57;;;2.90;;
45007;SDS011;30743;52.008;5.644;2022-09-25T00:16:05;6.07;;;3.00;;
45007;SDS011;30743;52.008;5.644;2022-09-25T00:18:33;6.65;;;3.10;;
45007;SDS011;30743;52.008;5.644;2022-09-25T00:21:17;5.95;;;3.10;;
45007;SDS011;30743;52.008;5.644;2022-09-25T00:23:43;7.32;;;2.83;;
45007;SDS011;30743;52.008;5.644;2022-09-25T00:26:09;7.05;;;3.25;;
45007;SDS011;30743;52.008;5.644;2022-09-25T00:28:36;3.35;;;2.65;;
45007;SDS011;30743;52.008;5.644;2022-09-25T00:31:03;5.97;;;2.65;;
45007;SDS011;30743;52.008;5.644;2022-09-25T00:33:30;7.35;;;2.95;;
45007;SDS011;30743;52.008;5.644;2022-09-25T00:36:03;4.47;;;2.78;;
45007;SDS011;30743;52.008;5.644;2022-09-25T00:38:31;8.10;;;2.75;;
45007;SDS011;30743;52.008;5.644;2022-09-25T00:40:58;4.93;;;2.55;;
45007;SDS011;30743;52.008;5.644;2022-09-25T00:48:50;5.30;;;2.40;;
45007;SDS011;30743;52.008;5.644;2022-09-25T00:51:23;5.03;;;2.33;;
45007;SDS011;30743;52.008;5.644;2022-09-25T00:53:53;4.90;;;2.35;;
45007;SDS011;30743;52.008;5.644;2022-09-25T00:56:22;4.25;;;2.50;;
45007;SDS011;30743;52.008;5.644;2022-09-25T00:58:48;7.32;;;2.47;;
45007;SDS011;30743;52.008;5.644;2022-09-25T01:01:15;8.73;;;3.72;;
45007;SDS011;30743;52.008;5.644;2022-09-25T01:03:40;3.88;;;2.58;;
45007;SDS011;30743;52.008;5.644;2022-09-25T01:06:07;5.38;;;2.53;;
45007;SDS011;30743;52.008;5.644;2022-09-25T01:08:34;4.35;;;2.38;;
45007;SDS011;30743;52.008;5.644;2022-09-25T01:11:01;8.40;;;2.85;;
45007;SDS011;30743;52.008;5.644;2022-09-25T01:13:27;5.80;;;2.50;;
45007;SDS011;30743;52.008;5.644;2022-09-25T01:18:52;5.82;;;2.22;;
45007;SDS011;30743;52.008;5.644;2022-09-25T01:21:50;3.63;;;1.63;;
45007;SDS011;30743;52.008;5.644;2022-09-25T01:24:35;2.63;;;1.92;;
45007;SDS011;30743;52.008;5.644;2022-09-25T01:35:15;4.78;;;2.10;;
45007;SDS011;30743;52.008;5.644;2022-09-25T01:37:56;52.33;;;4.22;;
45007;SDS011;30743;52.008;5.644;2022-09-25T01:43:08;5.88;;;1.63;;
45007;SDS011;30743;52.008;5.644;2022-09-25T01:45:41;33.45;;;3.45;;
45007;SDS011;30743;52.008;5.644;2022-09-25T01:48:14;4.78;;;1.50;;
45007;SDS011;30743;52.008;5.644;2022-09-25T01:50:48;3.40;;;1.70;;
45007;SDS011;30743;52.008;5.644;2022-09-25T01:53:21;5.15;;;1.77;;
45007;SDS011;30743;52.008;5.644;2022-09-25T01:55:51;6.18;;;1.85;;
45007;SDS011;30743;52.008;5.644;2022-09-25T01:58:29;5.35;;;2.55;;
45007;SDS011;30743;52.008;5.644;2022-09-25T02:01:00;3.67;;;2.08;;
45007;SDS011;30743;52.008;5.644;2022-09-25T02:03:34;5.38;;;2.10;;
45007;SDS011;30743;52.008;5.644;2022-09-25T02:06:05;8.05;;;2.20;;
45007;SDS011;30743;52.008;5.644;2022-09-25T02:08:38;24.30;;;2.72;;
45007;SDS011;30743;52.008;5.644;2022-09-25T02:11:08;151.70;;;11.98;;
45007;SDS011;30743;52.008;5.644;2022-09-25T02:13:41;16.83;;;1.88;;
45007;SDS011;30743;52.008;5.644;2022-09-25T02:16:17;84.10;;;5.82;;
45007;SDS011;30743;52.008;5.644;2022-09-25T02:18:46;43.25;;;2.97;;
45007;SDS011;30743;52.008;5.644;2022-09-25T02:27:13;81.93;;;4.55;;
45007;SDS011;30743;52.008;5.644;2022-09-25T02:29:39;53.13;;;3.80;;
45007;SDS011;30743;52.008;5.644;2022-09-25T02:32:07;44.83;;;3.38;;
45007;SDS011;30743;52.008;5.644;2022-09-25T02:34:38;15.65;;;1.25;;
45007;SDS011;30743;52.008;5.644;2022-09-25T02:37:14;23.35;;;2.03;;
45007;SDS011;30743;52.008;5.644;2022-09-25T02:39:41;11.23;;;2.05;;
45007;SDS011;30743;52.008;5.644;2022-09-25T02:47:43;4.05;;;1.20;;
45007;SDS011;30743;52.008;5.644;2022-09-25T02:50:26;19.08;;;1.58;;
45007;SDS011;30743;52.008;5.644;2022-09-25T02:52:59;21.50;;;1.60;;
45007;SDS011;30743;52.008;5.644;2022-09-25T02:55:53;13.52;;;2.47;;
45007;SDS011;30743;52.008;5.644;2022-09-25T02:58:23;15.02;;;1.67;;
45007;SDS011;30743;52.008;5.644;2022-09-25T03:00:59;21.63;;;1.60;;
45007;SDS011;30743;52.008;5.644;2022-09-25T03:03:29;29.55;;;1.67;;
45007;SDS011;30743;52.008;5.644;2022-09-25T03:05:56;9.30;;;1.00;;
45007;SDS011;30743;52.008;5.644;2022-09-25T03:08:23;7.03;;;1.05;;
45007;SDS011;30743;52.008;5.644;2022-09-25T03:11:05;7.47;;;0.93;;
45007;SDS011;30743;52.008;5.644;2022-09-25T03:13:33;15.23;;;1.73;;
45007;SDS011;30743;52.008;5.644;2022-09-25T03:18:31;8.13;;;0.95;;
45007;SDS011;30743;52.008;5.644;2022-09-25T03:20:57;7.28;;;1.45;;
45007;SDS011;30743;52.008;5.644;2022-09-25T03:23:23;10.73;;;1.40;;
45007;SDS011;30743;52.008;5.644;2022-09-25T03:25:49;15.52;;;1.60;;
45007;SDS011;30743;52.008;5.644;2022-09-25T03:28:17;11.05;;;1.58;;
45007;SDS011;30743;52.008;5.644;2022-09-25T03:30:43;5.38;;;0.88;;
45007;SDS011;30743;52.008;5.644;2022-09-25T03:33:18;4.35;;;0.80;;
45007;SDS011;30743;52.008;5.644;2022-09-25T03:35:44;10.95;;;1.73;;
45007;SDS011;30743;52.008;5.644;2022-09-25T03:38:09;20.58;;;1.73;;
45007;SDS011;30743;52.008;5.644;2022-09-25T03:40:36;8.18;;;1.30;;
45007;SDS011;30743;52.008;5.644;2022-09-25T03:43:02;13.82;;;2.00;;
45007;SDS011;30743;52.008;5.644;2022-09-25T03:45:27;5.18;;;1.15;;
45007;SDS011;30743;52.008;5.644;2022-09-25T03:47:53;16.90;;;1.30;;
45007;SDS011;30743;52.008;5.644;2022-09-25T03:50:18;21.80;;;1.95;;
45007;SDS011;30743;52.008;5.644;2022-09-25T03:52:44;20.67;;;1.85;;
45007;SDS011;30743;52.008;5.644;2022-09-25T03:55:09;14.63;;;1.15;;
45007;SDS011;30743;52.008;5.644;2022-09-25T03:57:35;5.03;;;1.05;;
45007;SDS011;30743;52.008;5.644;2022-09-25T04:00:01;8.90;;;1.23;;
45007;SDS011;30743;52.008;5.644;2022-09-25T04:02:28;26.05;;;2.15;;
45007;SDS011;30743;52.008;5.644;2022-09-25T04:04:53;49.17;;;3.20;;
45007;SDS011;30743;52.008;5.644;2022-09-25T04:07:22;10.90;;;2.53;;
45007;SDS011;30743;52.008;5.644;2022-09-25T04:09:49;21.15;;;2.15;;
45007;SDS011;30743;52.008;5.644;2022-09-25T04:12:14;14.52;;;1.50;;
45007;SDS011;30743;52.008;5.644;2022-09-25T04:14:40;12.57;;;1.50;;
45007;SDS011;30743;52.008;5.644;2022-09-25T04:17:09;5.55;;;1.23;;
45007;SDS011;30743;52.008;5.644;2022-09-25T04:19:34;6.72;;;1.85;;
45007;SDS011;30743;52.008;5.644;2022-09-25T04:22:00;7.13;;;1.40;;
45007;SDS011;30743;52.008;5.644;2022-09-25T04:24:25;3.10;;;0.82;;
45007;SDS011;30743;52.008;5.644;2022-09-25T04:27:10;23.52;;;1.88;;
45007;SDS011;30743;52.008;5.644;2022-09-25T04:29:35;22.73;;;1.95;;
45007;SDS011;30743;52.008;5.644;2022-09-25T04:32:01;45.53;;;2.15;;
45007;SDS011;30743;52.008;5.644;2022-09-25T04:34:45;12.00;;;1.42;;
45007;SDS011;30743;52.008;5.644;2022-09-25T04:37:11;12.85;;;2.75;;
45007;SDS011;30743;52.008;5.644;2022-09-25T04:39:38;6.53;;;1.10;;
45007;SDS011;30743;52.008;5.644;2022-09-25T04:42:03;30.15;;;3.42;;
45007;SDS011;30743;52.008;5.644;2022-09-25T04:44:29;21.77;;;2.10;;
45007;SDS011;30743;52.008;5.644;2022-09-25T04:46:55;29.55;;;2.72;;
45007;SDS011;30743;52.008;5.644;2022-09-25T04:49:21;17.20;;;1.60;;
45007;SDS011;30743;52.008;5.644;2022-09-25T04:51:46;20.00;;;1.75;;
45007;SDS011;30743;52.008;5.644;2022-09-25T04:54:12;31.83;;;2.42;;
45007;SDS011;30743;52.008;5.644;2022-09-25T04:56:38;25.58;;;2.20;;
45007;SDS011;30743;52.008;5.644;2022-09-25T04:59:04;11.32;;;1.48;;
45007;SDS011;30743;52.008;5.644;2022-09-25T05:01:29;11.95;;;1.85;;
45007;SDS011;30743;52.008;5.644;2022-09-25T05:03:55;9.35;;;1.40;;
45007;SDS011;30743;52.008;5.644;2022-09-25T05:06:21;28.40;;;2.97;;
45007;SDS011;30743;52.008;5.644;2022-09-25T05:08:47;15.52;;;2.47;;
45007;SDS011;30743;52.008;5.644;2022-09-25T05:11:17;25.73;;;3.53;;
45007;SDS011;30743;52.008;5.644;2022-09-25T05:13:42;15.93;;;2.22;;
45007;SDS011;30743;52.008;5.644;2022-09-25T05:16:10;6.80;;;1.75;;
45007;SDS011;30743;52.008;5.644;2022-09-25T05:18:36;9.93;;;2.08;;
45007;SDS011;30743;52.008;5.644;2022-09-25T05:21:02;16.92;;;2.30;;
45007;SDS011;30743;52.008;5.644;2022-09-25T05:23:29;28.30;;;3.28;;
45007;SDS011;30743;52.008;5.644;2022-09-25T05:25:54;23.40;;;2.53;;
45007;SDS011;30743;52.008;5.644;2022-09-25T05:28:25;34.38;;;2.97;;
45007;SDS011;30743;52.008;5.644;2022-09-25T05:30:52;26.98;;;2.72;;
45007;SDS011;30743;52.008;5.644;2022-09-25T05:33:18;31.60;;;2.47;;
45007;SDS011;30743;52.008;5.644;2022-09-25T05:35:43;28.50;;;3.28;;
45007;SDS011;30743;52.008;5.644;2022-09-25T05:38:09;16.20;;;2.15;;
45007;SDS011;30743;52.008;5.644;2022-09-25T05:40:36;17.52;;;2.53;;
45007;SDS011;30743;52.008;5.644;2022-09-25T05:43:03;14.52;;;1.98;;
45007;SDS011;30743;52.008;5.644;2022-09-25T05:45:29;12.15;;;2.03;;
45007;SDS011;30743;52.008;5.644;2022-09-25T05:47:58;12.73;;;1.88;;
45007;SDS011;30743;52.008;5.644;2022-09-25T05:50:25;3.80;;;1.55;;
45007;SDS011;30743;52.008;5.644;2022-09-25T05:52:55;5.90;;;1.75;;
45007;SDS011;30743;52.008;5.644;2022-09-25T05:55:21;10.88;;;2.15;;
45007;SDS011;30743;52.008;5.644;2022-09-25T05:57:47;33.42;;;4.85;;
45007;SDS011;30743;52.008;5.644;2022-09-25T06:00:12;16.33;;;2.15;;
45007;SDS011;30743;52.008;5.644;2022-09-25T06:02:40;11.68;;;1.92;;
45007;SDS011;30743;52.008;5.644;2022-09-25T06:05:05;5.68;;;1.60;;
45007;SDS011;30743;52.008;5.644;2022-09-25T06:07:32;6.53;;;1.50;;
45007;SDS011;30743;52.008;5.644;2022-09-25T06:09:58;11.60;;;2.10;;
45007;SDS011;30743;52.008;5.644;2022-09-25T06:12:24;3.67;;;1.70;;
45007;SDS011;30743;52.008;5.644;2022-09-25T06:14:50;6.47;;;1.60;;
45007;SDS011;30743;52.008;5.644;2022-09-25T06:17:16;13.23;;;1.95;;
45007;SDS011;30743;52.008;5.644;2022-09-25T06:19:42;7.15;;;2.05;;
45007;SDS011;30743;52.008;5.644;2022-09-25T06:22:07;14.65;;;2.17;;
45007;SDS011;30743;52.008;5.644;2022-09-25T06:24:33;9.43;;;2.10;;
45007;SDS011;30743;52.008;5.644;2022-09-25T06:26:58;7.35;;;2.03;;
45007;SDS011;30743;52.008;5.644;2022-09-25T06:29:24;8.80;;;2.40;;
45007;SDS011;30743;52.008;5.644;2022-09-25T06:31:50;9.25;;;1.90;;
45007;SDS011;30743;52.008;5.644;2022-09-25T06:34:16;10.73;;;2.25;;
45007;SDS011;30743;52.008;5.644;2022-09-25T06:36:42;9.88;;;2.20;;
45007;SDS011;30743;52.008;5.644;2022-09-25T06:39:07;9.02;;;2.40;;
45007;SDS011;30743;52.008;5.644;2022-09-25T06:41:33;7.72;;;2.28;;
45007;SDS011;30743;52.008;5.644;2022-09-25T06:43:59;7.78;;;2.50;;
45007;SDS011;30743;52.008;5.644;2022-09-25T06:46:26;6.82;;;2.40;;
45007;SDS011;30743;52.008;5.644;2022-09-25T06:48:52;6.95;;;2.53;;
45007;SDS011;30743;52.008;5.644;2022-09-25T06:51:23;10.07;;;2.92;;
45007;SDS011;30743;52.008;5.644;2022-09-25T06:53:54;4.72;;;2.17;;
45007;SDS011;30743;52.008;5.644;2022-09-25T06:56:20;6.82;;;1.98;;
45007;SDS011;30743;52.008;5.644;2022-09-25T06:58:46;4.35;;;1.77;;
45007;SDS011;30743;52.008;5.644;2022-09-25T07:01:12;7.18;;;1.95;;
45007;SDS011;30743;52.008;5.644;2022-09-25T07:03:37;3.50;;;1.48;;
45007;SDS011;30743;52.008;5.644;2022-09-25T07:06:21;4.03;;;1.23;;
45007;SDS011;30743;52.008;5.644;2022-09-25T07:08:48;0.95;;;0.88;;
45007;SDS011;30743;52.008;5.644;2022-09-25T07:11:19;1.83;;;0.90;;
45007;SDS011;30743;52.008;5.644;2022-09-25T07:13:46;1.20;;;1.08;;
45007;SDS011;30743;52.008;5.644;2022-09-25T07:16:14;4.55;;;0.90;;
45007;SDS011;30743;52.008;5.644;2022-09-25T07:18:41;3.35;;;0.90;;
45007;SDS011;30743;52.008;5.644;2022-09-25T07:21:14;1.75;;;0.80;;
45007;SDS011;30743;52.008;5.644;2022-09-25T07:23:47;2.13;;;0.60;;
45007;SDS011;30743;52.008;5.644;2022-09-25T07:26:21;2.83;;;0.60;;
45007;SDS011;30743;52.008;5.644;2022-09-25T07:28:52;3.67;;;0.90;;
45007;SDS011;30743;52.008;5.644;2022-09-25T07:31:23;2.53;;;0.75;;
45007;SDS011;30743;52.008;5.644;2022-09-25T07:33:50;1.05;;;0.77;;
45007;SDS011;30743;52.008;5.644;2022-09-25T07:36:16;2.10;;;0.70;;
45007;SDS011;30743;52.008;5.644;2022-09-25T07:38:42;1.30;;;0.70;;
45007;SDS011;30743;52.008;5.644;2022-09-25T07:41:12;2.45;;;0.80;;
45007;SDS011;30743;52.008;5.644;2022-09-25T07:43:37;1.98;;;0.70;;
45007;SDS011;30743;52.008;5.644;2022-09-25T07:46:04;1.90;;;0.75;;
45007;SDS011;30743;52.008;5.644;2022-09-25T07:48:30;4.55;;;0.82;;
45007;SDS011;30743;52.008;5.644;2022-09-25T07:51:02;2.97;;;0.70;;
45007;SDS011;30743;52.008;5.644;2022-09-25T07:53:30;2.85;;;0.80;;
45007;SDS011;30743;52.008;5.644;2022-09-25T07:55:56;1.90;;;0.70;;
45007;SDS011;30743;52.008;5.644;2022-09-25T07:58:23;3.17;;;0.70;;
45007;SDS011;30743;52.008;5.644;2022-09-25T08:00:48;1.42;;;0.68;;
45007;SDS011;30743;52.008;5.644;2022-09-25T08:03:14;5.53;;;0.80;;
45007;SDS011;30743;52.008;5.644;2022-09-25T08:05:40;2.05;;;0.80;;
45007;SDS011;30743;52.008;5.644;2022-09-25T08:08:05;2.40;;;0.77;;
45007;SDS011;30743;52.008;5.644;2022-09-25T08:10:31;2.30;;;0.70;;
45007;SDS011;30743;52.008;5.644;2022-09-25T08:12:56;4.63;;;0.90;;
45007;SDS011;30743;52.008;5.644;2022-09-25T08:15:22;3.80;;;0.93;;
45007;SDS011;30743;52.008;5.644;2022-09-25T08:17:47;2.83;;;0.60;;
45007;SDS011;30743;52.008;5.644;2022-09-25T08:20:13;3.13;;;0.95;;
45007;SDS011;30743;52.008;5.644;2022-09-25T08:22:38;3.45;;;0.98;;
45007;SDS011;30743;52.008;5.644;2022-09-25T08:25:04;1.80;;;0.65;;
45007;SDS011;30743;52.008;5.644;2022-09-25T08:27:30;1.90;;;0.70;;
45007;SDS011;30743;52.008;5.644;2022-09-25T08:29:56;5.47;;;1.00;;
45007;SDS011;30743;52.008;5.644;2022-09-25T08:32:22;3.60;;;0.80;;
45007;SDS011;30743;52.008;5.644;2022-09-25T08:34:47;3.55;;;1.15;;
45007;SDS011;30743;52.008;5.644;2022-09-25T08:37:13;1.92;;;0.88;;
45007;SDS011;30743;52.008;5.644;2022-09-25T08:39:40;3.47;;;1.20;;
45007;SDS011;30743;52.008;5.644;2022-09-25T08:42:06;4.45;;;1.00;;
45007;SDS011;30743;52.008;5.644;2022-09-25T08:44:42;1.88;;;0.75;;
45007;SDS011;30743;52.008;5.644;2022-09-25T08:47:13;2.00;;;0.80;;
45007;SDS011;30743;52.008;5.644;2022-09-25T08:50:17;3.28;;;0.80;;
45007;SDS011;30743;52.008;5.644;2022-09-25T08:52:47;1.98;;;0.70;;
45007;SDS011;30743;52.008;5.644;2022-09-25T08:55:24;2.92;;;0.60;;
45007;SDS011;30743;52.008;5.644;2022-09-25T08:58:28;1.55;;;0.60;;
45007;SDS011;30743;52.008;5.644;2022-09-25T09:00:57;2.67;;;0.70;;
45007;SDS011;30743;52.008;5.644;2022-09-25T09:03:54;2.75;;;0.50;;
45007;SDS011;30743;52.008;5.644;2022-09-25T09:06:27;3.13;;;0.60;;
45007;SDS011;30743;52.008;5.644;2022-09-25T09:08:57;2.65;;;0.50;;
45007;SDS011;30743;52.008;5.644;2022-09-25T09:11:38;1.80;;;0.55;;
45007;SDS011;30743;52.008;5.644;2022-09-25T09:14:13;2.55;;;0.77;;
45007;SDS011;30743;52.008;5.644;2022-09-25T09:19:31;2.03;;;0.60;;
45007;SDS011;30743;52.008;5.644;2022-09-25T09:29:47;2.38;;;0.40;;
45007;SDS011;30743;52.008;5.644;2022-09-25T09:32:44;4.05;;;0.73;;
45007;SDS011;30743;52.008;5.644;2022-09-25T09:37:57;3.20;;;0.52;;
45007;SDS011;30743;52.008;5.644;2022-09-25T09:46:09;2.40;;;0.55;;
45007;SDS011;30743;52.008;5.644;2022-09-25T09:51:31;1.67;;;0.50;;
45007;SDS011;30743;52.008;5.644;2022-09-25T09:56:54;2.55;;;0.90;;
45007;SDS011;30743;52.008;5.644;2022-09-25T09:59:22;4.22;;;0.80;;
45007;SDS011;30743;52.008;5.644;2022-09-25T10:01:59;1.50;;;0.50;;
45007;SDS011;30743;52.008;5.644;2022-09-25T10:04:40;2.83;;;0.40;;
45007;SDS011;30743;52.008;5.644;2022-09-25T10:07:08;2.25;;;0.50;;
45007;SDS011;30743;52.008;5.644;2022-09-25T10:09:37;4.47;;;0.60;;
45007;SDS011;30743;52.008;5.644;2022-09-25T10:12:05;5.78;;;0.70;;
45007;SDS011;30743;52.008;5.644;2022-09-25T10:14:37;2.50;;;0.40;;
45007;SDS011;30743;52.008;5.644;2022-09-25T10:17:06;5.25;;;0.75;;
45007;SDS011;30743;52.008;5.644;2022-09-25T10:19:47;2.33;;;0.20;;
45007;SDS011;30743;52.008;5.644;2022-09-25T10:22:19;2.15;;;0.50;;
45007;SDS011;30743;52.008;5.644;2022-09-25T10:24:49;2.60;;;0.30;;
45007;SDS011;30743;52.008;5.644;2022-09-25T10:27:29;1.33;;;0.40;;
45007;SDS011;30743;52.008;5.644;2022-09-25T10:30:01;0.85;;;0.20;;
45007;SDS011;30743;52.008;5.644;2022-09-25T10:32:49;0.98;;;0.20;;
45007;SDS011;30743;52.008;5.644;2022-09-25T10:35:38;2.92;;;0.85;;
45007;SDS011;30743;52.008;5.644;2022-09-25T10:38:44;1.55;;;0.50;;
45007;SDS011;30743;52.008;5.644;2022-09-25T10:41:12;1.35;;;0.45;;
45007;SDS011;30743;52.008;5.644;2022-09-25T10:43:52;1.55;;;0.40;;
45007;SDS011;30743;52.008;5.644;2022-09-25T10:46:33;3.70;;;0.65;;
45007;SDS011;30743;52.008;5.644;2022-09-25T10:49:25;0.95;;;0.30;;
45007;SDS011;30743;52.008;5.644;2022-09-25T10:52:11;1.00;;;0.40;;
45007;SDS011;30743;52.008;5.644;2022-09-25T10:54:38;1.02;;;0.20;;
45007;SDS011;30743;52.008;5.644;2022-09-25T10:57:14;2.33;;;0.70;;
45007;SDS011;30743;52.008;5.644;2022-09-25T11:00:03;3.05;;;0.45;;
45007;SDS011;30743;52.008;5.644;2022-09-25T11:02:59;2.03;;;0.50;;
45007;SDS011;30743;52.008;5.644;2022-09-25T11:05:28;1.20;;;0.40;;
45007;SDS011;30743;52.008;5.644;2022-09-25T11:07:56;1.85;;;0.43;;
45007;SDS011;30743;52.008;5.644;2022-09-25T11:10:32;0.98;;;0.32;;
45007;SDS011;30743;52.008;5.644;2022-09-25T11:13:01;1.63;;;0.40;;
45007;SDS011;30743;52.008;5.644;2022-09-25T11:15:32;1.17;;;0.60;;
45007;SDS011;30743;52.008;5.644;2022-09-25T11:18:00;1.60;;;0.40;;
45007;SDS011;30743;52.008;5.644;2022-09-25T11:20:30;0.98;;;0.30;;
45007;SDS011;30743;52.008;5.644;2022-09-25T11:23:02;2.28;;;0.55;;
45007;SDS011;30743;52.008;5.644;2022-09-25T11:25:46;2.50;;;0.40;;
45007;SDS011;30743;52.008;5.644;2022-09-25T11:31:15;1.23;;;0.50;;
45007;SDS011;30743;52.008;5.644;2022-09-25T11:36:26;2.13;;;0.38;;
45007;SDS011;30743;52.008;5.644;2022-09-25T11:39:00;1.00;;;0.40;;
45007;SDS011;30743;52.008;5.644;2022-09-25T11:41:47;1.13;;;0.40;;
45007;SDS011;30743;52.008;5.644;2022-09-25T11:49:40;2.92;;;0.60;;
45007;SDS011;30743;52.008;5.644;2022-09-25T11:52:18;1.20;;;0.60;;
45007;SDS011;30743;52.008;5.644;2022-09-25T11:54:47;2.42;;;0.57;;
45007;SDS011;30743;52.008;5.644;2022-09-25T12:11:39;3.63;;;0.50;;
45007;SDS011;30743;52.008;5.644;2022-09-25T12:19:45;2.42;;;0.85;;
45007;SDS011;30743;52.008;5.644;2022-09-25T12:22:35;2.03;;;0.40;;
45007;SDS011;30743;52.008;5.644;2022-09-25T12:26:00;1.83;;;0.22;;
45007;SDS011;30743;52.008;5.644;2022-09-25T12:29:05;1.55;;;0.20;;
45007;SDS011;30743;52.008;5.644;2022-09-25T12:34:43;5.63;;;1.17;;
45007;SDS011;30743;52.008;5.644;2022-09-25T12:37:38;1.08;;;0.40;;
45007;SDS011;30743;52.008;5.644;2022-09-25T12:40:21;1.38;;;0.30;;
45007;SDS011;30743;52.008;5.644;2022-09-25T12:45:50;2.08;;;0.40;;
45007;SDS011;30743;52.008;5.644;2022-09-25T12:51:00;2.72;;;0.40;;
45007;SDS011;30743;52.008;5.644;2022-09-25T12:53:43;0.32;;;0.22;;
45007;SDS011;30743;52.008;5.644;2022-09-25T12:59:14;3.45;;;0.40;;
45007;SDS011;30743;52.008;5.644;2022-09-25T13:01:52;1.63;;;0.40;;
45007;SDS011;30743;52.008;5.644;2022-09-25T13:07:05;4.25;;;0.45;;
45007;SDS011;30743;52.008;5.644;2022-09-25T13:09:51;2.30;;;0.32;;
45007;SDS011;30743;52.008;5.644;2022-09-25T13:12:23;2.47;;;0.40;;
45007;SDS011;30743;52.008;5.644;2022-09-25T13:15:32;1.45;;;0.32;;
45007;SDS011;30743;52.008;5.644;2022-09-25T13:17:52;1.75;;;0.32;;
45007;SDS011;30743;52.008;5.644;2022-09-25T13:22:51;1.50;;;0.60;;
45007;SDS011;30743;52.008;5.644;2022-09-25T13:25:26;1.80;;;0.60;;
45007;SDS011;30743;52.008;5.644;2022-09-25T13:27:53;1.80;;;0.60;;
45007;SDS011;30743;52.008;5.644;2022-09-25T13:30:25;1.85;;;0.40;;
45007;SDS011;30743;52.008;5.644;2022-09-25T13:32:59;4.47;;;1.55;;
45007;SDS011;30743;52.008;5.644;2022-09-25T13:35:27;3.20;;;1.00;;
45007;SDS011;30743;52.008;5.644;2022-09-25T13:37:55;5.25;;;1.50;;
45007;SDS011;30743;52.008;5.644;2022-09-25T13:40:33;1.45;;;0.40;;
45007;SDS011;30743;52.008;5.644;2022-09-25T13:45:44;4.47;;;0.90;;
45007;SDS011;30743;52.008;5.644;2022-09-25T13:48:11;1.23;;;0.52;;
45007;SDS011;30743;52.008;5.644;2022-09-25T13:50:43;3.17;;;0.40;;
45007;SDS011;30743;52.008;5.644;2022-09-25T13:53:46;3.15;;;0.77;;
45007;SDS011;30743;52.008;5.644;2022-09-25T13:56:13;1.27;;;0.50;;
45007;SDS011;30743;52.008;5.644;2022-09-25T13:58:58;1.80;;;0.30;;
45007;SDS011;30743;52.008;5.644;2022-09-25T14:06:40;1.33;;;0.50;;
45007;SDS011;30743;52.008;5.644;2022-09-25T14:09:09;1.17;;;0.52;;
45007;SDS011;30743;52.008;5.644;2022-09-25T14:11:37;1.60;;;0.50;;
45007;SDS011;30743;52.008;5.644;2022-09-25T14:14:08;2.30;;;0.60;;
45007;SDS011;30743;52.008;5.644;2022-09-25T14:16:51;1.83;;;0.50;;
45007;SDS011;30743;52.008;5.644;2022-09-25T14:19:20;0.98;;;0.30;;
45007;SDS011;30743;52.008;5.644;2022-09-25T14:21:56;1.75;;;0.38;;
45007;SDS011;30743;52.008;5.644;2022-09-25T14:24:25;0.43;;;0.25;;
45007;SDS011;30743;52.008;5.644;2022-09-25T14:26:56;0.93;;;0.30;;
45007;SDS011;30743;52.008;5.644;2022-09-25T14:29:24;2.00;;;0.83;;
45007;SDS011;30743;52.008;5.644;2022-09-25T14:34:44;0.68;;;0.30;;
45007;SDS011;30743;52.008;5.644;2022-09-25T14:37:18;1.25;;;0.30;;
45007;SDS011;30743;52.008;5.644;2022-09-25T14:48:11;0.60;;;0.25;;
45007;SDS011;30743;52.008;5.644;2022-09-25T14:50:48;1.77;;;0.35;;
45007;SDS011;30743;52.008;5.644;2022-09-25T14:53:25;1.00;;;0.32;;
45007;SDS011;30743;52.008;5.644;2022-09-25T14:55:57;1.70;;;0.50;;
45007;SDS011;30743;52.008;5.644;2022-09-25T14:58:27;2.45;;;0.45;;
45007;SDS011;30743;52.008;5.644;2022-09-25T15:00:57;0.68;;;0.15;;
45007;SDS011;30743;52.008;5.644;2022-09-25T15:03:29;0.35;;;0.20;;
45007;SDS011;30743;52.008;5.644;2022-09-25T15:05:58;1.00;;;0.43;;
45007;SDS011;30743;52.008;5.644;2022-09-25T15:08:34;1.30;;;0.20;;
45007;SDS011;30743;52.008;5.644;2022-09-25T15:11:10;5.07;;;0.45;;
45007;SDS011;30743;52.008;5.644;2022-09-25T15:13:39;4.22;;;0.45;;
45007;SDS011;30743;52.008;5.644;2022-09-25T15:16:06;0.65;;;0.20;;
45007;SDS011;30743;52.008;5.644;2022-09-25T15:18:57;1.08;;;0.30;;
45007;SDS011;30743;52.008;5.644;2022-09-25T15:21:28;3.08;;;0.38;;
45007;SDS011;30743;52.008;5.644;2022-09-25T15:24:00;1.38;;;0.20;;
45007;SDS011;30743;52.008;5.644;2022-09-25T15:26:31;1.10;;;0.40;;
45007;SDS011;30743;52.008;5.644;2022-09-25T15:28:57;2.05;;;0.70;;
45007;SDS011;30743;52.008;5.644;2022-09-25T15:31:23;3.35;;;0.40;;
45007;SDS011;30743;52.008;5.644;2022-09-25T15:36:49;1.35;;;0.32;;
45007;SDS011;30743;52.008;5.644;2022-09-25T15:39:24;0.63;;;0.20;;
45007;SDS011;30743;52.008;5.644;2022-09-25T15:41:53;2.42;;;0.40;;
45007;SDS011;30743;52.008;5.644;2022-09-25T15:44:20;0.30;;;0.25;;
45007;SDS011;30743;52.008;5.644;2022-09-25T15:49:18;0.30;;;0.10;;
45007;SDS011;30743;52.008;5.644;2022-09-25T15:52:03;2.20;;;0.40;;
45007;SDS011;30743;52.008;5.644;2022-09-25T15:54:45;0.93;;;0.35;;
45007;SDS011;30743;52.008;5.644;2022-09-25T15:57:14;1.60;;;0.50;;
45007;SDS011;30743;52.008;5.644;2022-09-25T15:59:47;1.60;;;0.43;;
45007;SDS011;30743;52.008;5.644;2022-09-25T16:02:32;4.43;;;0.63;;
45007;SDS011;30743;52.008;5.644;2022-09-25T16:05:20;1.15;;;0.55;;
45007;SDS011;30743;52.008;5.644;2022-09-25T16:07:50;1.40;;;0.50;;
45007;SDS011;30743;52.008;5.644;2022-09-25T16:12:48;3.28;;;0.68;;
45007;SDS011;30743;52.008;5.644;2022-09-25T16:17:57;2.88;;;0.60;;
45007;SDS011;30743;52.008;5.644;2022-09-25T16:20:28;1.58;;;0.60;;
45007;SDS011;30743;52.008;5.644;2022-09-25T16:23:02;2.15;;;0.90;;
45007;SDS011;30743;52.008;5.644;2022-09-25T16:25:33;3.22;;;0.40;;
45007;SDS011;30743;52.008;5.644;2022-09-25T16:28:08;2.05;;;0.80;;
45007;SDS011;30743;52.008;5.644;2022-09-25T16:30:47;3.92;;;0.82;;
45007;SDS011;30743;52.008;5.644;2022-09-25T16:33:48;2.55;;;0.60;;
45007;SDS011;30743;52.008;5.644;2022-09-25T16:36:11;2.58;;;0.70;;
45007;SDS011;30743;52.008;5.644;2022-09-25T16:38:41;2.65;;;0.47;;
45007;SDS011;30743;52.008;5.644;2022-09-25T16:41:25;2.30;;;0.77;;
45007;SDS011;30743;52.008;5.644;2022-09-25T16:44:02;3.85;;;1.25;;
45007;SDS011;30743;52.008;5.644;2022-09-25T16:46:27;3.53;;;0.80;;
45007;SDS011;30743;52.008;5.644;2022-09-25T16:48:58;5.85;;;1.10;;
45007;SDS011;30743;52.008;5.644;2022-09-25T16:51:25;2.35;;;0.70;;
45007;SDS011;30743;52.008;5.644;2022-09-25T16:53:54;2.72;;;0.70;;
45007;SDS011;30743;52.008;5.644;2022-09-25T16:56:22;1.35;;;0.50;;
45007;SDS011;30743;52.008;5.644;2022-09-25T16:58:50;3.88;;;1.00;;
45007;SDS011;30743;52.008;5.644;2022-09-25T17:01:16;2.35;;;0.60;;
45007;SDS011;30743;52.008;5.644;2022-09-25T17:03:43;2.22;;;0.80;;
45007;SDS011;30743;52.008;5.644;2022-09-25T17:06:18;2.83;;;0.40;;
45007;SDS011;30743;52.008;5.644;2022-09-25T17:08:45;1.95;;;0.60;;
45007;SDS011;30743;52.008;5.644;2022-09-25T17:11:11;0.98;;;0.52;;
45007;SDS011;30743;52.008;5.644;2022-09-25T17:13:39;1.33;;;0.43;;
45007;SDS011;30743;52.008;5.644;2022-09-25T17:16:06;2.72;;;0.57;;
45007;SDS011;30743;52.008;5.644;2022-09-25T17:18:31;2.80;;;0.60;;
45007;SDS011;30743;52.008;5.644;2022-09-25T17:20:58;2.38;;;0.60;;
45007;SDS011;30743;52.008;5.644;2022-09-25T17:23:26;1.90;;;0.80;;
45007;SDS011;30743;52.008;5.644;2022-09-25T17:25:57;5.60;;;0.90;;